createdAt,value
2018-11-29T00:00:28.889Z,14.57
2018-11-29T00:02:58.105Z,14.53
2018-11-29T00:05:26.802Z,13.63
2018-11-29T00:07:55.522Z,15.40
2018-11-29T00:10:26.546Z,12.53
2018-11-29T00:12:55.235Z,12.60
2018-11-29T00:15:23.876Z,13.00
2018-11-29T00:17:52.500Z,13.63
2018-11-29T00:20:22.857Z,10.30
2018-11-29T00:22:53.468Z,12.43
2018-11-29T00:25:23.520Z,11.83
2018-11-29T00:27:53.035Z,15.63
2018-11-29T00:30:23.585Z,12.80
2018-11-29T00:32:54.024Z,9.87
2018-11-29T00:35:22.752Z,12.30
2018-11-29T00:37:51.814Z,9.80
2018-11-29T00:40:23.321Z,12.20
2018-11-29T00:42:52.331Z,11.80
2018-11-29T00:45:21.888Z,12.50
2018-11-29T00:47:50.739Z,9.97
2018-11-29T00:50:20.103Z,12.63
2018-11-29T00:52:49.808Z,9.10
2018-11-29T00:55:22.560Z,11.83
2018-11-29T00:57:51.652Z,12.90
2018-11-29T01:00:22.613Z,12.43
2018-11-29T01:02:51.255Z,14.43
2018-11-29T01:05:19.927Z,11.17
2018-11-29T01:07:48.688Z,11.93
2018-11-29T01:10:17.912Z,9.93
2018-11-29T01:12:46.996Z,11.87
2018-11-29T01:15:17.765Z,10.97
2018-11-29T01:17:47.947Z,12.80
2018-11-29T01:20:17.846Z,11.03
2018-11-29T01:22:46.480Z,12.17
2018-11-29T01:25:15.491Z,13.23
2018-11-29T01:27:45.315Z,8.83
2018-11-29T01:30:14.812Z,12.33
2018-11-29T01:32:43.464Z,8.90
2018-11-29T01:35:13.032Z,14.23
2018-11-29T01:37:43.535Z,12.60
2018-11-29T01:40:17.735Z,11.60
2018-11-29T01:42:48.541Z,13.60
2018-11-29T01:45:17.789Z,13.27
2018-11-29T01:47:46.410Z,16.33
2018-11-29T01:50:16.208Z,13.10
2018-11-29T01:52:44.770Z,13.20
2018-11-29T01:55:13.446Z,10.97
2018-11-29T01:57:42.039Z,12.50
2018-11-29T02:00:14.874Z,11.60
2018-11-29T02:02:44.024Z,10.07
2018-11-29T02:05:14.608Z,13.60
2018-11-29T02:07:43.164Z,10.70
2018-11-29T02:10:18.130Z,13.17
2018-11-29T02:12:46.925Z,13.47
2018-11-29T02:15:15.538Z,12.50
2018-11-29T02:17:44.829Z,12.07
2018-11-29T02:20:19.182Z,10.47
2018-11-29T02:22:48.294Z,10.90
2018-11-29T02:25:17.449Z,9.90
2018-11-29T02:27:46.029Z,11.63
2018-11-29T02:30:24.588Z,12.27
2018-11-29T02:32:53.153Z,14.33
2018-11-29T02:35:21.732Z,10.53
2018-11-29T02:37:50.324Z,10.83
2018-11-29T02:40:19.103Z,10.97
2018-11-29T02:42:48.613Z,10.83
2018-11-29T02:45:19.443Z,10.53
2018-11-29T02:47:48.154Z,10.97
2018-11-29T02:50:16.734Z,12.80
2018-11-29T02:52:45.275Z,10.77
2018-11-29T02:55:14.100Z,12.30
2018-11-29T02:57:42.775Z,12.20
2018-11-29T03:00:15.668Z,13.30
2018-11-29T03:02:45.818Z,9.80
2018-11-29T03:05:14.698Z,11.73
2018-11-29T03:07:43.355Z,11.50
2018-11-29T03:10:12.969Z,14.43
2018-11-29T03:12:41.806Z,11.87
2018-11-29T03:15:14.274Z,11.73
2018-11-29T03:17:44.042Z,11.40
2018-11-29T03:20:14.340Z,11.47
2018-11-29T03:22:43.027Z,10.80
2018-11-29T03:25:13.336Z,11.93
2018-11-29T03:27:42.383Z,11.37
2018-11-29T03:30:14.416Z,10.63
2018-11-29T03:32:42.945Z,13.43
2018-11-29T03:35:12.437Z,12.57
2018-11-29T03:37:40.985Z,11.57
2018-11-29T03:40:11.106Z,11.83
2018-11-29T03:42:41.071Z,10.47
2018-11-29T03:45:12.657Z,11.33
2018-11-29T03:47:55.715Z,10.93
2018-11-29T03:53:21.745Z,11.90
2018-11-29T03:55:51.120Z,13.10
2018-11-29T03:58:25.883Z,12.57
2018-11-29T04:00:56.579Z,15.20
2018-11-29T04:03:26.332Z,9.97
2018-11-29T04:05:56.061Z,13.13
2018-11-29T04:08:26.858Z,11.43
2018-11-29T04:10:56.336Z,14.80
2018-11-29T04:13:25.953Z,12.23
2018-11-29T04:15:56.764Z,13.53
2018-11-29T04:18:27.081Z,11.57
2018-11-29T04:20:56.825Z,13.60
2018-11-29T04:23:35.075Z,9.70
2018-11-29T04:26:07.059Z,14.40
2018-11-29T04:29:02.609Z,17.50
2018-11-29T04:31:44.746Z,14.33
2018-11-29T04:34:14.428Z,12.57
2018-11-29T04:36:52.319Z,13.13
2018-11-29T04:39:26.218Z,12.23
2018-11-29T04:41:56.148Z,12.67
2018-11-29T04:44:25.190Z,13.17
2018-11-29T04:46:54.193Z,12.00
2018-11-29T04:49:23.563Z,14.80
2018-11-29T04:51:52.785Z,13.03
2018-11-29T04:54:24.290Z,12.13
2018-11-29T04:56:55.401Z,14.83
2018-11-29T04:59:27.039Z,16.50
2018-11-29T05:01:57.977Z,15.07
2018-11-29T05:04:26.826Z,11.17
2018-11-29T05:06:55.508Z,10.63
2018-11-29T05:09:24.408Z,11.07
2018-11-29T05:11:53.112Z,11.87
2018-11-29T05:14:21.792Z,14.03
2018-11-29T05:16:52.238Z,11.93
2018-11-29T05:19:26.152Z,12.73
2018-11-29T05:21:54.759Z,13.97
2018-11-29T05:24:25.603Z,11.40
2018-11-29T05:26:54.277Z,13.63
2018-11-29T05:29:23.536Z,16.97
2018-11-29T05:31:53.855Z,11.87
2018-11-29T05:34:22.607Z,14.17
2018-11-29T05:36:51.279Z,12.93
2018-11-29T05:39:19.763Z,13.07
2018-11-29T05:41:48.236Z,16.65
2018-11-29T05:44:16.875Z,14.50
2018-11-29T05:46:45.455Z,14.07
2018-11-29T05:49:13.969Z,13.97
2018-11-29T05:51:43.400Z,12.33
2018-11-29T05:54:12.344Z,11.70
2018-11-29T05:56:40.934Z,11.00
2018-11-29T05:59:09.798Z,13.87
2018-11-29T06:01:41.611Z,11.17
2018-11-29T06:04:10.176Z,12.03
2018-11-29T06:06:38.878Z,12.80
2018-11-29T06:09:09.632Z,14.67
2018-11-29T06:11:39.352Z,11.10
2018-11-29T06:14:09.262Z,16.62
2018-11-29T06:16:38.525Z,11.13
2018-11-29T06:19:08.808Z,12.57
2018-11-29T06:21:38.768Z,15.73
2018-11-29T06:24:13.438Z,9.07
2018-11-29T06:26:36.822Z,12.07
2018-11-29T06:29:05.452Z,11.83
2018-11-29T06:31:34.133Z,12.53
2018-11-29T06:34:04.792Z,13.97
2018-11-29T06:36:33.378Z,14.83
2018-11-29T06:39:03.872Z,12.93
2018-11-29T06:41:32.497Z,13.33
2018-11-29T06:44:02.329Z,18.43
2018-11-29T06:46:33.061Z,13.40
2018-11-29T06:49:01.826Z,17.00
2018-11-29T06:51:31.053Z,13.53
2018-11-29T06:54:00.337Z,14.13
2018-11-29T06:57:55.657Z,12.43
2018-11-29T07:00:30.698Z,13.17
2018-11-29T07:03:00.050Z,17.07
2018-11-29T07:05:30.999Z,17.37
2018-11-29T07:08:00.428Z,15.43
2018-11-29T07:10:33.035Z,15.50
2018-11-29T07:13:03.365Z,16.33
2018-11-29T07:15:33.582Z,13.67
2018-11-29T07:18:06.387Z,12.73
2018-11-29T07:20:35.125Z,16.83
2018-11-29T07:23:04.983Z,16.53
2018-11-29T07:25:35.391Z,13.40
2018-11-29T07:28:04.827Z,12.60
2018-11-29T07:30:34.879Z,13.40
2018-11-29T07:33:04.522Z,15.60
2018-11-29T07:35:34.219Z,14.93
2018-11-29T07:38:06.034Z,17.93
2018-11-29T07:40:35.472Z,16.80
2018-11-29T07:43:06.804Z,14.57
2018-11-29T07:45:37.029Z,14.83
2018-11-29T07:48:08.870Z,16.27
2018-11-29T07:50:38.821Z,16.50
2018-11-29T07:53:12.352Z,13.77
2018-11-29T07:55:42.172Z,15.87
2018-11-29T07:58:12.705Z,13.90
2018-11-29T08:00:41.501Z,14.57
2018-11-29T08:03:11.236Z,14.77
2018-11-29T08:05:42.533Z,16.53
2018-11-29T08:08:11.349Z,14.60
2018-11-29T08:10:41.376Z,11.87
2018-11-29T08:13:11.335Z,16.53
2018-11-29T08:15:41.024Z,13.83
2018-11-29T08:18:10.726Z,13.80
2018-11-29T08:21:10.029Z,17.00
2018-11-29T08:23:41.453Z,15.47
2018-11-29T08:26:11.920Z,16.87
2018-11-29T08:28:40.860Z,14.03
2018-11-29T08:31:10.119Z,15.00
2018-11-29T08:33:39.047Z,13.60
2018-11-29T08:36:08.179Z,12.77
2018-11-29T08:38:37.048Z,15.53
2018-11-29T08:41:07.899Z,15.90
2018-11-29T08:43:37.374Z,19.93
2018-11-29T08:46:06.738Z,13.77
2018-11-29T08:48:36.250Z,15.43
2018-11-29T08:51:05.074Z,10.97
2018-11-29T08:53:34.237Z,16.80
2018-11-29T08:56:03.736Z,14.20
2018-11-29T08:58:35.289Z,16.10
2018-11-29T09:01:04.901Z,13.30
2018-11-29T09:03:35.289Z,13.20
2018-11-29T09:06:05.244Z,15.37
2018-11-29T09:08:34.707Z,14.23
2018-11-29T09:11:03.740Z,15.30
2018-11-29T09:13:34.788Z,14.67
2018-11-29T09:16:03.565Z,15.17
2018-11-29T09:18:32.174Z,15.43
2018-11-29T09:21:01.450Z,13.70
2018-11-29T09:23:30.876Z,14.63
2018-11-29T09:25:59.590Z,12.73
2018-11-29T09:28:28.366Z,16.43
2018-11-29T09:30:57.764Z,14.17
2018-11-29T09:33:26.327Z,14.37
2018-11-29T09:35:55.708Z,12.37
2018-11-29T09:38:26.520Z,11.57
2018-11-29T09:40:57.551Z,12.73
2018-11-29T09:43:27.177Z,14.60
2018-11-29T09:45:56.766Z,12.60
2018-11-29T09:48:25.358Z,11.30
2018-11-29T09:50:54.513Z,11.23
2018-11-29T09:53:24.045Z,13.77
2018-11-29T09:55:53.429Z,11.73
2018-11-29T09:58:22.019Z,12.83
2018-11-29T10:00:50.655Z,10.23
2018-11-29T10:03:19.977Z,11.53
2018-11-29T10:05:50.145Z,13.53
2018-11-29T10:08:25.959Z,11.90
2018-11-29T10:10:48.619Z,13.77
2018-11-29T10:13:17.479Z,13.90
2018-11-29T10:15:46.073Z,11.93
2018-11-29T10:18:14.692Z,12.03
2018-11-29T10:20:43.196Z,10.30
2018-11-29T10:23:12.215Z,13.93
2018-11-29T10:25:42.663Z,11.53
2018-11-29T10:28:13.406Z,11.23
2018-11-29T10:31:02.233Z,14.20
2018-11-29T10:33:30.801Z,10.90
2018-11-29T10:35:59.723Z,10.23
2018-11-29T10:38:28.966Z,11.47
2018-11-29T10:40:57.613Z,11.00
2018-11-29T10:43:26.547Z,10.30
2018-11-29T10:45:55.175Z,9.30
2018-11-29T10:48:25.348Z,10.10
2018-11-29T10:50:54.012Z,10.33
2018-11-29T10:53:22.601Z,11.73
2018-11-29T10:55:51.967Z,10.37
2018-11-29T10:58:21.179Z,11.00
2018-11-29T11:00:55.181Z,10.83
2018-11-29T11:03:24.432Z,10.63
2018-11-29T11:05:54.179Z,10.67
2018-11-29T11:08:23.845Z,11.13
2018-11-29T11:10:52.465Z,12.93
2018-11-29T11:13:21.159Z,9.90
2018-11-29T11:15:50.822Z,12.07
2018-11-29T11:18:19.658Z,9.93
2018-11-29T11:20:49.449Z,10.17
2018-11-29T11:23:18.734Z,11.80
2018-11-29T11:25:47.844Z,12.67
2018-11-29T11:28:16.523Z,11.53
2018-11-29T11:30:45.393Z,11.90
2018-11-29T11:33:14.024Z,11.07
2018-11-29T11:35:44.453Z,9.20
2018-11-29T11:38:13.612Z,11.07
2018-11-29T11:40:43.067Z,10.10
2018-11-29T11:43:11.707Z,9.23
2018-11-29T11:45:40.950Z,9.07
2018-11-29T11:48:10.276Z,7.77
2018-11-29T11:50:38.931Z,9.57
2018-11-29T11:53:09.129Z,10.70
2018-11-29T11:55:38.062Z,8.43
2018-11-29T11:58:07.748Z,8.80
2018-11-29T12:00:36.452Z,9.30
2018-11-29T12:03:11.548Z,10.47
2018-11-29T12:05:40.700Z,11.33
2018-11-29T12:08:11.082Z,8.20
2018-11-29T12:10:40.796Z,7.50
2018-11-29T12:13:09.424Z,8.23
2018-11-29T12:15:38.384Z,10.63
2018-11-29T12:18:12.268Z,8.23
2018-11-29T12:20:41.652Z,10.63
2018-11-29T12:23:11.686Z,8.60
2018-11-29T12:25:41.312Z,9.90
2018-11-29T12:28:09.888Z,7.80
2018-11-29T12:30:42.246Z,11.07
2018-11-29T12:33:11.852Z,8.47
2018-11-29T12:35:40.489Z,7.90
2018-11-29T12:38:09.022Z,7.30
2018-11-29T12:40:37.611Z,9.47
2018-11-29T12:43:06.401Z,8.20
2018-11-29T12:45:35.722Z,8.33
2018-11-29T12:48:04.405Z,7.60
2018-11-29T12:50:35.283Z,6.83
2018-11-29T12:53:04.107Z,5.87
2018-11-29T12:55:32.809Z,5.53
2018-11-29T12:58:05.896Z,6.50
2018-11-29T13:00:31.604Z,7.17
2018-11-29T13:03:00.433Z,4.77
2018-11-29T13:05:29.432Z,6.30
2018-11-29T13:07:58.834Z,5.80
2018-11-29T13:10:28.199Z,6.60
2018-11-29T13:12:56.871Z,8.43
2018-11-29T13:15:30.978Z,6.10
2018-11-29T13:18:00.785Z,9.50
2018-11-29T13:20:32.445Z,8.27
2018-11-29T13:22:58.223Z,5.97
2018-11-29T13:25:28.218Z,6.30
2018-11-29T13:27:56.842Z,8.80
2018-11-29T13:30:25.677Z,5.67
2018-11-29T13:32:56.475Z,8.60
2018-11-29T13:35:28.703Z,5.83
2018-11-29T13:38:02.280Z,8.07
2018-11-29T13:40:31.231Z,5.93
2018-11-29T13:42:59.934Z,6.70
2018-11-29T13:45:28.626Z,8.70
2018-11-29T13:47:57.408Z,8.53
2018-11-29T13:50:26.770Z,6.37
2018-11-29T13:52:55.528Z,9.20
2018-11-29T13:55:25.129Z,9.70
2018-11-29T13:57:53.869Z,6.87
2018-11-29T14:00:25.332Z,9.33
2018-11-29T14:02:56.353Z,7.77
2018-11-29T14:05:25.312Z,8.33
2018-11-29T14:07:54.790Z,8.73
2018-11-29T14:10:25.013Z,8.87
2018-11-29T14:12:54.942Z,8.70
2018-11-29T14:15:25.894Z,8.07
2018-11-29T14:17:54.707Z,7.40
2018-11-29T14:20:23.488Z,7.27
2018-11-29T14:22:52.350Z,7.70
2018-11-29T14:25:21.979Z,6.30
2018-11-29T14:27:55.395Z,7.57
2018-11-29T14:30:29.000Z,10.30
2018-11-29T14:32:59.629Z,9.07
2018-11-29T14:35:30.008Z,9.07
2018-11-29T14:37:58.966Z,6.93
2018-11-29T14:40:34.347Z,8.70
2018-11-29T14:43:04.065Z,8.47
2018-11-29T14:45:33.288Z,8.20
2018-11-29T14:48:02.411Z,13.03
2018-11-29T14:50:34.457Z,5.20
2018-11-29T14:53:05.184Z,8.97
2018-11-29T14:55:33.964Z,14.07
2018-11-29T14:58:02.744Z,8.23
2018-11-29T15:00:31.622Z,7.17
2018-11-29T15:03:03.372Z,8.60
2018-11-29T15:05:32.955Z,6.17
2018-11-29T15:08:02.604Z,8.70
2018-11-29T15:10:32.358Z,6.90
2018-11-29T15:13:02.298Z,7.57
2018-11-29T15:15:32.997Z,8.67
2018-11-29T15:18:02.838Z,7.17
2018-11-29T15:20:39.280Z,8.97
2018-11-29T15:23:09.500Z,11.07
2018-11-29T15:25:38.730Z,8.70
2018-11-29T15:28:07.552Z,9.83
2018-11-29T15:30:36.375Z,8.17
2018-11-29T15:33:06.771Z,7.23
2018-11-29T15:35:36.180Z,7.17
2018-11-29T15:38:05.873Z,8.63
2018-11-29T15:40:35.761Z,7.57
2018-11-29T15:43:05.713Z,7.17
2018-11-29T15:45:35.147Z,8.73
2018-11-29T15:48:05.026Z,8.27
2018-11-29T15:50:33.978Z,7.57
2018-11-29T15:53:02.854Z,8.63
2018-11-29T15:55:31.735Z,7.63
2018-11-29T15:58:02.495Z,7.43
2018-11-29T16:00:31.743Z,11.07
2018-11-29T16:03:02.990Z,8.47
2018-11-29T16:05:31.811Z,8.50
2018-11-29T16:08:02.258Z,10.13
2018-11-29T16:10:31.008Z,9.83
2018-11-29T16:13:00.957Z,8.43
2018-11-29T16:15:31.608Z,8.70
2018-11-29T16:18:00.775Z,8.20
2018-11-29T16:20:32.212Z,9.27
2018-11-29T16:23:01.592Z,7.03
2018-11-29T16:25:31.357Z,7.80
2018-11-29T16:28:01.032Z,10.27
2018-11-29T16:30:39.568Z,10.80
2018-11-29T16:33:15.079Z,11.03
2018-11-29T16:35:44.609Z,8.90
2018-11-29T16:38:13.513Z,7.37
2018-11-29T16:42:07.104Z,8.70
2018-11-29T16:44:35.939Z,8.27
2018-11-29T16:47:04.861Z,8.23
2018-11-29T16:49:34.778Z,8.83
2018-11-29T16:52:03.491Z,10.33
2018-11-29T16:54:33.063Z,7.73
2018-11-29T16:57:02.303Z,8.13
2018-11-29T16:59:30.982Z,11.33
2018-11-29T17:02:00.385Z,7.20
2018-11-29T17:04:30.439Z,9.43
2018-11-29T17:07:00.901Z,12.07
2018-11-29T17:09:29.756Z,11.43
2018-11-29T17:12:01.380Z,8.30
2018-11-29T17:14:30.213Z,7.03
2018-11-29T17:16:59.970Z,8.77
2018-11-29T17:19:28.751Z,8.90
2018-11-29T17:21:59.437Z,8.97
2018-11-29T17:24:30.498Z,11.05
2018-11-29T17:27:00.839Z,11.55
2018-11-29T17:29:30.639Z,7.73
2018-11-29T17:31:59.950Z,8.20
2018-11-29T17:34:29.200Z,8.07
2018-11-29T17:36:58.367Z,8.70
2018-11-29T17:39:27.799Z,9.40
2018-11-29T17:41:57.462Z,8.47
2018-11-29T17:44:28.264Z,6.70
2018-11-29T17:46:58.907Z,6.13
2018-11-29T17:49:27.910Z,6.77
2018-11-29T17:51:58.090Z,9.58
2018-11-29T17:54:28.047Z,6.47
2018-11-29T17:56:59.053Z,7.03
2018-11-29T17:59:28.767Z,9.90
2018-11-29T18:01:59.368Z,7.57
2018-11-29T18:04:28.182Z,7.23
2018-11-29T18:06:57.884Z,6.67
2018-11-29T18:09:26.610Z,5.97
2018-11-29T18:11:56.789Z,6.37
2018-11-29T18:14:27.006Z,8.07
2018-11-29T18:16:55.969Z,8.03
2018-11-29T18:19:26.091Z,5.90
2018-11-29T18:25:18.281Z,8.93
2018-11-29T18:27:52.270Z,8.03
2018-11-29T18:30:22.298Z,6.97
2018-11-29T18:32:52.610Z,9.17
2018-11-29T18:35:21.737Z,7.63
2018-11-29T18:42:42.921Z,6.67
2018-11-29T18:45:15.898Z,5.93
2018-11-29T18:47:45.846Z,7.70
2018-11-29T18:50:20.716Z,7.43
2018-11-29T18:52:51.778Z,7.23
2018-11-29T18:55:27.913Z,6.30
2018-11-29T18:57:57.883Z,6.83
2018-11-29T19:00:28.884Z,11.13
2018-11-29T19:02:58.890Z,8.57
2018-11-29T19:05:37.300Z,7.57
2018-11-29T19:08:08.392Z,6.63
2018-11-29T19:10:57.710Z,8.13
2018-11-29T19:13:32.772Z,8.63
2018-11-29T19:16:10.388Z,6.80
2018-11-29T19:21:26.881Z,9.83
2018-11-29T19:24:03.861Z,9.17
2018-11-29T19:26:45.323Z,9.57
2018-11-29T19:29:30.991Z,7.40
2018-11-29T19:35:17.378Z,7.47
2018-11-29T19:37:52.951Z,8.03
2018-11-29T19:40:25.905Z,7.83
2018-11-29T19:45:42.866Z,6.50
2018-11-29T19:48:18.751Z,7.40
2018-11-29T19:50:55.348Z,7.23
2018-11-29T19:53:30.736Z,8.07
2018-11-29T19:56:04.893Z,10.37
2018-11-29T19:58:45.780Z,6.40
2018-11-29T20:01:18.312Z,9.17
2018-11-29T20:03:48.292Z,7.40
2018-11-29T20:06:20.215Z,9.30
2018-11-29T20:09:01.126Z,7.27
2018-11-29T20:14:50.943Z,9.10
2018-11-29T20:17:27.400Z,9.37
2018-11-29T20:20:01.086Z,7.67
2018-11-29T20:22:49.010Z,8.07
2018-11-29T20:39:22.294Z,10.10
2018-11-29T20:48:57.538Z,11.23
2018-11-29T20:54:47.411Z,8.33
2018-11-29T20:57:40.298Z,7.27
2018-11-29T21:00:17.023Z,9.80
2018-11-29T21:02:55.778Z,7.07
2018-11-29T21:05:29.029Z,8.07
2018-11-29T21:08:08.871Z,7.10
2018-11-29T21:10:38.901Z,6.53
2018-11-29T21:13:13.490Z,8.37
2018-11-29T21:15:43.441Z,7.50
2018-11-29T21:18:14.487Z,7.10
2018-11-29T21:20:54.144Z,10.43
2018-11-29T21:23:26.757Z,8.17
2018-11-29T21:28:39.685Z,9.67
2018-11-29T21:31:11.594Z,11.50
2018-11-29T21:33:42.813Z,9.30
2018-11-29T21:36:14.839Z,8.90
2018-11-29T21:38:45.634Z,9.03
2018-11-29T21:41:17.518Z,9.43
2018-11-29T21:43:49.142Z,8.60
2018-11-29T21:46:18.643Z,7.73
2018-11-29T21:48:50.581Z,8.17
2018-11-29T21:51:35.140Z,9.57
2018-11-29T21:54:06.252Z,7.10
2018-11-29T21:56:43.399Z,7.77
2018-11-29T21:59:16.583Z,7.53
2018-11-29T22:01:47.430Z,8.13
2018-11-29T22:05:42.122Z,7.23
2018-11-29T22:08:10.946Z,7.83
2018-11-29T22:10:40.656Z,8.83
2018-11-29T22:13:12.095Z,9.93
2018-11-29T22:15:40.773Z,7.93
2018-11-29T22:18:15.946Z,11.37
2018-11-29T22:20:44.746Z,8.97
2018-11-29T22:23:14.996Z,9.50
2018-11-29T22:25:44.490Z,8.40
2018-11-29T22:28:13.343Z,8.03
2018-11-29T22:30:44.606Z,6.93
2018-11-29T22:33:13.379Z,9.03
2018-11-29T22:35:43.827Z,7.87
2018-11-29T22:38:12.724Z,9.03
2018-11-29T22:40:56.954Z,7.80
2018-11-29T22:43:29.677Z,8.90
2018-11-29T22:45:58.592Z,9.00
2018-11-29T22:48:29.492Z,9.03
2018-11-29T22:51:00.772Z,7.13
2018-11-29T22:53:29.370Z,6.97
2018-11-29T22:55:57.935Z,7.30
2018-11-29T22:58:28.785Z,9.83
2018-11-29T23:00:59.256Z,8.30
2018-11-29T23:03:28.722Z,7.60
2018-11-29T23:05:58.135Z,10.63
2018-11-29T23:08:29.678Z,9.20
2018-11-29T23:11:00.082Z,9.60
2018-11-29T23:13:31.024Z,10.17
2018-11-29T23:19:01.105Z,8.93
2018-11-29T23:21:32.115Z,7.63
2018-11-29T23:24:03.548Z,10.60
2018-11-29T23:26:35.972Z,9.17
2018-11-29T23:29:06.541Z,6.43
2018-11-29T23:31:36.406Z,11.10
2018-11-29T23:34:09.019Z,7.33
2018-11-29T23:36:38.898Z,8.93
2018-11-29T23:39:08.375Z,9.50
2018-11-29T23:41:37.161Z,6.77
2018-11-29T23:44:06.971Z,6.87
2018-11-29T23:46:35.553Z,7.13
2018-11-29T23:49:04.752Z,12.13
2018-11-29T23:51:34.193Z,7.50
2018-11-29T23:54:04.520Z,9.77
2018-11-29T23:56:34.129Z,7.83
2018-11-29T23:59:04.874Z,9.30
